DOH weather

Hamad International Airport
Doha, Ad Dawhah Municipality, Qatar

Public forecast

Using degrees Celsius for public forecast. Weather courtesy of forecast.io.

METAR (pilot weather report)

Closest report is Doha International Airport, 2.4 nm (4.5 km) WSW. Retrieved 2019/03/19 19:00 UTC (2 minutes ago):

OTBD 191900Z 31007KT 270V350 CAVOK 19/06 Q1016 NOSIG

TAF (pilot weather forecast)

Closest forecast is Doha International Airport, 2.4 nm (4.5 km) WSW. Retrieved 2019/03/19 18:00 UTC (1 hour ago):

TAF OTBD 191705Z 1918/2024 33010KT CAVOK BECMG 2009/2011 03011KT 8000 FEW030 SCT120 BECMG 2017/2019 31007KT CAVOK